sensor_id;sensor_type;location;lat;lon;timestamp;temperature;humidity
60868;DHT22;46702;48.370;10.794;2024-02-14T00:00:33;0.00;99.90
60868;DHT22;46702;48.370;10.794;2024-02-14T00:02:58;-0.10;99.90
60868;DHT22;46702;48.370;10.794;2024-02-14T00:05:24;-0.20;99.90
60868;DHT22;46702;48.370;10.794;2024-02-14T00:07:50;-0.40;99.90
60868;DHT22;46702;48.370;10.794;2024-02-14T00:10:16;-0.40;99.90
60868;DHT22;46702;48.370;10.794;2024-02-14T00:12:42;-0.20;99.90
60868;DHT22;46702;48.370;10.794;2024-02-14T00:15:08;-0.30;99.90
60868;DHT22;46702;48.370;10.794;2024-02-14T00:17:34;-0.30;99.90
60868;DHT22;46702;48.370;10.794;2024-02-14T00:20:04;-0.20;99.90
60868;DHT22;46702;48.370;10.794;2024-02-14T00:22:33;-0.30;99.90
60868;DHT22;46702;48.370;10.794;2024-02-14T00:24:59;-0.30;99.90
60868;DHT22;46702;48.370;10.794;2024-02-14T00:27:25;-0.30;99.90
60868;DHT22;46702;48.370;10.794;2024-02-14T00:29:52;-0.20;99.90
60868;DHT22;46702;48.370;10.794;2024-02-14T00:32:19;-0.10;99.90
60868;DHT22;46702;48.370;10.794;2024-02-14T00:34:45;0.00;99.90
60868;DHT22;46702;48.370;10.794;2024-02-14T00:37:11;0.10;99.90
60868;DHT22;46702;48.370;10.794;2024-02-14T00:39:37;0.20;99.90
60868;DHT22;46702;48.370;10.794;2024-02-14T00:42:03;0.20;99.90
60868;DHT22;46702;48.370;10.794;2024-02-14T00:44:29;0.30;99.90
60868;DHT22;46702;48.370;10.794;2024-02-14T00:46:58;0.30;99.90
60868;DHT22;46702;48.370;10.794;2024-02-14T00:49:28;0.40;99.90
60868;DHT22;46702;48.370;10.794;2024-02-14T00:51:54;0.40;99.90
60868;DHT22;46702;48.370;10.794;2024-02-14T00:54:20;0.50;99.90
60868;DHT22;46702;48.370;10.794;2024-02-14T00:56:46;0.50;99.90
60868;DHT22;46702;48.370;10.794;2024-02-14T00:59:12;0.60;99.90
60868;DHT22;46702;48.370;10.794;2024-02-14T01:01:39;0.60;99.90
60868;DHT22;46702;48.370;10.794;2024-02-14T01:04:04;0.50;99.90
60868;DHT22;46702;48.370;10.794;2024-02-14T01:06:30;0.50;99.90
60868;DHT22;46702;48.370;10.794;2024-02-14T01:08:57;0.40;99.90
60868;DHT22;46702;48.370;10.794;2024-02-14T01:11:22;0.30;99.90
60868;DHT22;46702;48.370;10.794;2024-02-14T01:13:48;0.40;99.90
60868;DHT22;46702;48.370;10.794;2024-02-14T01:16:14;0.40;99.90
60868;DHT22;46702;48.370;10.794;2024-02-14T01:18:40;0.40;99.90
60868;DHT22;46702;48.370;10.794;2024-02-14T01:21:06;0.50;99.90
60868;DHT22;46702;48.370;10.794;2024-02-14T01:23:32;0.50;99.90
60868;DHT22;46702;48.370;10.794;2024-02-14T01:25:58;0.50;99.90
60868;DHT22;46702;48.370;10.794;2024-02-14T01:28:24;0.50;99.90
60868;DHT22;46702;48.370;10.794;2024-02-14T01:30:51;0.50;99.90
60868;DHT22;46702;48.370;10.794;2024-02-14T01:33:17;0.50;99.90
60868;DHT22;46702;48.370;10.794;2024-02-14T01:35:42;0.50;99.90
60868;DHT22;46702;48.370;10.794;2024-02-14T01:38:08;0.50;99.90
60868;DHT22;46702;48.370;10.794;2024-02-14T01:40:34;0.50;99.90
60868;DHT22;46702;48.370;10.794;2024-02-14T01:43:00;0.50;99.90
60868;DHT22;46702;48.370;10.794;2024-02-14T01:45:27;0.50;99.90
60868;DHT22;46702;48.370;10.794;2024-02-14T01:47:53;0.50;99.90
60868;DHT22;46702;48.370;10.794;2024-02-14T01:50:21;0.50;99.90
60868;DHT22;46702;48.370;10.794;2024-02-14T01:52:55;0.50;99.90
60868;DHT22;46702;48.370;10.794;2024-02-14T01:55:21;0.20;99.90
60868;DHT22;46702;48.370;10.794;2024-02-14T01:57:47;0.20;99.90
60868;DHT22;46702;48.370;10.794;2024-02-14T02:00:14;0.20;99.90
60868;DHT22;46702;48.370;10.794;2024-02-14T02:02:44;0.10;99.90
60868;DHT22;46702;48.370;10.794;2024-02-14T02:05:10;0.10;99.90
60868;DHT22;46702;48.370;10.794;2024-02-14T02:07:36;0.10;99.90
60868;DHT22;46702;48.370;10.794;2024-02-14T02:10:05;0.20;99.90
60868;DHT22;46702;48.370;10.794;2024-02-14T02:12:31;0.20;99.90
60868;DHT22;46702;48.370;10.794;2024-02-14T02:14:58;0.30;99.90
60868;DHT22;46702;48.370;10.794;2024-02-14T02:17:24;0.30;99.90
60868;DHT22;46702;48.370;10.794;2024-02-14T02:19:53;0.30;99.90
60868;DHT22;46702;48.370;10.794;2024-02-14T02:22:20;0.30;99.90
60868;DHT22;46702;48.370;10.794;2024-02-14T02:24:46;0.30;99.90
60868;DHT22;46702;48.370;10.794;2024-02-14T02:27:12;0.40;99.90
60868;DHT22;46702;48.370;10.794;2024-02-14T02:29:41;0.30;99.90
60868;DHT22;46702;48.370;10.794;2024-02-14T02:32:07;0.40;99.90
60868;DHT22;46702;48.370;10.794;2024-02-14T02:34:35;0.40;99.90
60868;DHT22;46702;48.370;10.794;2024-02-14T02:37:05;0.50;99.90
60868;DHT22;46702;48.370;10.794;2024-02-14T02:39:33;0.50;99.90
60868;DHT22;46702;48.370;10.794;2024-02-14T02:42:01;0.50;99.90
60868;DHT22;46702;48.370;10.794;2024-02-14T02:44:27;0.50;99.90
60868;DHT22;46702;48.370;10.794;2024-02-14T02:46:53;0.50;99.90
60868;DHT22;46702;48.370;10.794;2024-02-14T02:49:19;0.00;99.90
60868;DHT22;46702;48.370;10.794;2024-02-14T02:51:45;-0.20;99.90
60868;DHT22;46702;48.370;10.794;2024-02-14T02:54:11;-0.10;99.90
60868;DHT22;46702;48.370;10.794;2024-02-14T02:56:38;-0.10;99.90
60868;DHT22;46702;48.370;10.794;2024-02-14T02:59:06;0.00;99.90
60868;DHT22;46702;48.370;10.794;2024-02-14T03:01:36;0.10;99.90
60868;DHT22;46702;48.370;10.794;2024-02-14T03:04:02;0.10;99.90
60868;DHT22;46702;48.370;10.794;2024-02-14T03:06:28;0.20;99.90
60868;DHT22;46702;48.370;10.794;2024-02-14T03:08:54;0.20;99.90
60868;DHT22;46702;48.370;10.794;2024-02-14T03:11:22;0.20;99.90
60868;DHT22;46702;48.370;10.794;2024-02-14T03:13:48;0.30;99.90
60868;DHT22;46702;48.370;10.794;2024-02-14T03:16:16;0.30;99.90
60868;DHT22;46702;48.370;10.794;2024-02-14T03:18:43;0.30;99.90
60868;DHT22;46702;48.370;10.794;2024-02-14T03:21:09;0.40;99.90
60868;DHT22;46702;48.370;10.794;2024-02-14T03:23:37;0.40;99.90
60868;DHT22;46702;48.370;10.794;2024-02-14T03:26:03;0.40;99.90
60868;DHT22;46702;48.370;10.794;2024-02-14T03:28:33;0.30;99.90
60868;DHT22;46702;48.370;10.794;2024-02-14T03:30:59;0.20;99.90
60868;DHT22;46702;48.370;10.794;2024-02-14T03:33:24;0.20;99.90
60868;DHT22;46702;48.370;10.794;2024-02-14T03:35:50;0.10;99.90
60868;DHT22;46702;48.370;10.794;2024-02-14T03:38:29;0.10;99.90
60868;DHT22;46702;48.370;10.794;2024-02-14T03:40:56;0.20;99.90
60868;DHT22;46702;48.370;10.794;2024-02-14T03:43:22;0.20;99.90
60868;DHT22;46702;48.370;10.794;2024-02-14T03:45:49;0.20;99.90
60868;DHT22;46702;48.370;10.794;2024-02-14T03:48:17;0.20;99.90
60868;DHT22;46702;48.370;10.794;2024-02-14T03:50:43;0.20;99.90
60868;DHT22;46702;48.370;10.794;2024-02-14T03:53:09;0.20;99.90
60868;DHT22;46702;48.370;10.794;2024-02-14T03:55:37;0.10;99.90
60868;DHT22;46702;48.370;10.794;2024-02-14T03:58:03;0.10;99.90
60868;DHT22;46702;48.370;10.794;2024-02-14T04:00:30;0.20;99.90
60868;DHT22;46702;48.370;10.794;2024-02-14T04:02:57;0.30;99.90
60868;DHT22;46702;48.370;10.794;2024-02-14T04:05:25;0.40;99.90
60868;DHT22;46702;48.370;10.794;2024-02-14T04:07:53;0.40;99.90
60868;DHT22;46702;48.370;10.794;2024-02-14T04:10:20;0.40;99.90
60868;DHT22;46702;48.370;10.794;2024-02-14T04:12:46;0.50;99.90
60868;DHT22;46702;48.370;10.794;2024-02-14T04:15:12;0.50;99.90
60868;DHT22;46702;48.370;10.794;2024-02-14T04:17:39;0.60;99.90
60868;DHT22;46702;48.370;10.794;2024-02-14T04:20:05;0.70;99.90
60868;DHT22;46702;48.370;10.794;2024-02-14T04:22:31;0.70;99.90
60868;DHT22;46702;48.370;10.794;2024-02-14T04:24:57;0.60;99.90
60868;DHT22;46702;48.370;10.794;2024-02-14T04:27:24;0.60;99.90
60868;DHT22;46702;48.370;10.794;2024-02-14T04:29:50;0.60;99.90
60868;DHT22;46702;48.370;10.794;2024-02-14T04:32:15;0.60;99.90
60868;DHT22;46702;48.370;10.794;2024-02-14T04:34:42;0.70;99.90
60868;DHT22;46702;48.370;10.794;2024-02-14T04:37:09;0.70;99.90
60868;DHT22;46702;48.370;10.794;2024-02-14T04:39:39;0.70;99.90
60868;DHT22;46702;48.370;10.794;2024-02-14T04:42:05;0.70;99.90
60868;DHT22;46702;48.370;10.794;2024-02-14T04:44:32;0.70;99.90
60868;DHT22;46702;48.370;10.794;2024-02-14T04:46:58;0.80;99.90
60868;DHT22;46702;48.370;10.794;2024-02-14T04:49:24;0.80;99.90
60868;DHT22;46702;48.370;10.794;2024-02-14T04:51:54;0.90;99.90
60868;DHT22;46702;48.370;10.794;2024-02-14T04:54:20;1.00;99.90
60868;DHT22;46702;48.370;10.794;2024-02-14T04:56:46;1.00;99.90
60868;DHT22;46702;48.370;10.794;2024-02-14T04:59:12;1.00;99.90
60868;DHT22;46702;48.370;10.794;2024-02-14T05:01:38;1.10;99.90
60868;DHT22;46702;48.370;10.794;2024-02-14T05:04:08;1.10;99.90
60868;DHT22;46702;48.370;10.794;2024-02-14T05:06:34;1.10;99.90
60868;DHT22;46702;48.370;10.794;2024-02-14T05:09:00;1.00;99.90
60868;DHT22;46702;48.370;10.794;2024-02-14T05:11:26;1.00;99.90
60868;DHT22;46702;48.370;10.794;2024-02-14T05:13:52;1.00;99.90
60868;DHT22;46702;48.370;10.794;2024-02-14T05:16:20;1.10;99.90
60868;DHT22;46702;48.370;10.794;2024-02-14T05:18:46;1.10;99.90
60868;DHT22;46702;48.370;10.794;2024-02-14T05:21:13;1.20;99.90
60868;DHT22;46702;48.370;10.794;2024-02-14T05:23:39;1.20;99.90
60868;DHT22;46702;48.370;10.794;2024-02-14T05:26:05;1.30;99.90
60868;DHT22;46702;48.370;10.794;2024-02-14T05:28:31;1.30;99.90
60868;DHT22;46702;48.370;10.794;2024-02-14T05:30:59;1.40;99.90
60868;DHT22;46702;48.370;10.794;2024-02-14T05:33:25;1.40;99.90
60868;DHT22;46702;48.370;10.794;2024-02-14T05:35:52;1.50;99.90
60868;DHT22;46702;48.370;10.794;2024-02-14T05:38:18;1.50;99.90
60868;DHT22;46702;48.370;10.794;2024-02-14T05:40:48;1.50;99.90
60868;DHT22;46702;48.370;10.794;2024-02-14T05:43:14;1.50;99.90
60868;DHT22;46702;48.370;10.794;2024-02-14T05:45:40;1.50;99.90
60868;DHT22;46702;48.370;10.794;2024-02-14T05:48:06;1.50;99.90
60868;DHT22;46702;48.370;10.794;2024-02-14T05:50:33;1.50;99.90
60868;DHT22;46702;48.370;10.794;2024-02-14T05:52:59;1.60;99.90
60868;DHT22;46702;48.370;10.794;2024-02-14T05:55:26;1.70;99.90
60868;DHT22;46702;48.370;10.794;2024-02-14T05:57:52;1.80;99.90
60868;DHT22;46702;48.370;10.794;2024-02-14T06:00:21;1.90;99.90
60868;DHT22;46702;48.370;10.794;2024-02-14T06:02:47;1.90;99.90
60868;DHT22;46702;48.370;10.794;2024-02-14T06:05:14;1.90;99.90
60868;DHT22;46702;48.370;10.794;2024-02-14T06:07:41;1.90;99.90
60868;DHT22;46702;48.370;10.794;2024-02-14T06:10:08;1.90;99.90
60868;DHT22;46702;48.370;10.794;2024-02-14T06:12:34;2.00;99.90
60868;DHT22;46702;48.370;10.794;2024-02-14T06:15:01;2.00;99.90
60868;DHT22;46702;48.370;10.794;2024-02-14T06:17:27;2.20;99.90
60868;DHT22;46702;48.370;10.794;2024-02-14T06:19:53;2.20;99.90
60868;DHT22;46702;48.370;10.794;2024-02-14T06:22:20;2.10;99.90
60868;DHT22;46702;48.370;10.794;2024-02-14T06:24:46;2.10;99.90
60868;DHT22;46702;48.370;10.794;2024-02-14T06:27:14;2.10;99.90
60868;DHT22;46702;48.370;10.794;2024-02-14T06:29:44;2.10;99.90
60868;DHT22;46702;48.370;10.794;2024-02-14T06:32:13;2.10;99.90
60868;DHT22;46702;48.370;10.794;2024-02-14T06:34:39;2.10;99.90
60868;DHT22;46702;48.370;10.794;2024-02-14T06:37:05;2.10;99.90
60868;DHT22;46702;48.370;10.794;2024-02-14T06:39:31;2.20;99.90
60868;DHT22;46702;48.370;10.794;2024-02-14T06:41:57;2.20;99.90
60868;DHT22;46702;48.370;10.794;2024-02-14T06:44:23;2.30;99.90
60868;DHT22;46702;48.370;10.794;2024-02-14T06:46:49;2.30;99.90
60868;DHT22;46702;48.370;10.794;2024-02-14T06:49:16;2.40;99.90
60868;DHT22;46702;48.370;10.794;2024-02-14T06:51:42;2.50;99.90
60868;DHT22;46702;48.370;10.794;2024-02-14T06:54:07;2.60;99.90
60868;DHT22;46702;48.370;10.794;2024-02-14T06:56:34;2.70;99.90
60868;DHT22;46702;48.370;10.794;2024-02-14T06:58:59;2.80;99.90
60868;DHT22;46702;48.370;10.794;2024-02-14T07:01:29;2.90;99.90
60868;DHT22;46702;48.370;10.794;2024-02-14T07:03:55;3.00;99.90
60868;DHT22;46702;48.370;10.794;2024-02-14T07:06:21;3.10;99.90
60868;DHT22;46702;48.370;10.794;2024-02-14T07:08:47;3.10;99.90
60868;DHT22;46702;48.370;10.794;2024-02-14T07:11:14;3.20;99.90
60868;DHT22;46702;48.370;10.794;2024-02-14T07:13:41;3.30;99.90
60868;DHT22;46702;48.370;10.794;2024-02-14T07:16:07;3.30;99.90
60868;DHT22;46702;48.370;10.794;2024-02-14T07:18:34;3.40;99.90
60868;DHT22;46702;48.370;10.794;2024-02-14T07:20:59;3.50;99.90
60868;DHT22;46702;48.370;10.794;2024-02-14T07:23:27;3.50;99.90
60868;DHT22;46702;48.370;10.794;2024-02-14T07:25:53;3.60;99.90
60868;DHT22;46702;48.370;10.794;2024-02-14T07:28:19;3.70;99.90
60868;DHT22;46702;48.370;10.794;2024-02-14T07:30:45;3.70;99.90
60868;DHT22;46702;48.370;10.794;2024-02-14T07:33:10;3.80;99.90
60868;DHT22;46702;48.370;10.794;2024-02-14T07:35:37;4.00;99.90
60868;DHT22;46702;48.370;10.794;2024-02-14T07:38:03;4.10;99.90
60868;DHT22;46702;48.370;10.794;2024-02-14T07:40:28;4.20;99.90
60868;DHT22;46702;48.370;10.794;2024-02-14T07:42:59;4.20;99.90
60868;DHT22;46702;48.370;10.794;2024-02-14T07:45:25;4.20;99.90
60868;DHT22;46702;48.370;10.794;2024-02-14T07:47:51;4.20;99.90
60868;DHT22;46702;48.370;10.794;2024-02-14T07:50:18;4.30;99.90
60868;DHT22;46702;48.370;10.794;2024-02-14T07:52:44;4.40;99.90
60868;DHT22;46702;48.370;10.794;2024-02-14T07:55:10;4.50;99.90
60868;DHT22;46702;48.370;10.794;2024-02-14T07:57:40;4.60;99.90
60868;DHT22;46702;48.370;10.794;2024-02-14T08:00:07;4.70;99.90
60868;DHT22;46702;48.370;10.794;2024-02-14T08:02:36;4.70;99.90
60868;DHT22;46702;48.370;10.794;2024-02-14T08:05:02;4.90;99.90
60868;DHT22;46702;48.370;10.794;2024-02-14T08:07:30;4.90;99.90
60868;DHT22;46702;48.370;10.794;2024-02-14T08:09:56;5.00;99.90
60868;DHT22;46702;48.370;10.794;2024-02-14T08:12:22;5.20;99.90
60868;DHT22;46702;48.370;10.794;2024-02-14T08:14:50;5.30;99.90
60868;DHT22;46702;48.370;10.794;2024-02-14T08:17:16;5.50;99.90
60868;DHT22;46702;48.370;10.794;2024-02-14T08:19:42;5.80;99.90
60868;DHT22;46702;48.370;10.794;2024-02-14T08:22:08;6.00;99.90
60868;DHT22;46702;48.370;10.794;2024-02-14T08:24:34;6.20;99.90
60868;DHT22;46702;48.370;10.794;2024-02-14T08:27:00;6.30;99.90
60868;DHT22;46702;48.370;10.794;2024-02-14T08:29:26;6.30;99.90
60868;DHT22;46702;48.370;10.794;2024-02-14T08:31:52;6.40;99.90
60868;DHT22;46702;48.370;10.794;2024-02-14T08:34:18;6.50;99.90
60868;DHT22;46702;48.370;10.794;2024-02-14T08:36:44;6.50;99.90
60868;DHT22;46702;48.370;10.794;2024-02-14T08:39:10;6.50;99.90
60868;DHT22;46702;48.370;10.794;2024-02-14T08:41:37;6.40;99.90
60868;DHT22;46702;48.370;10.794;2024-02-14T08:44:04;6.50;99.90
60868;DHT22;46702;48.370;10.794;2024-02-14T08:46:30;6.50;99.90
60868;DHT22;46702;48.370;10.794;2024-02-14T08:48:56;6.50;99.90
60868;DHT22;46702;48.370;10.794;2024-02-14T08:51:22;6.50;99.90
60868;DHT22;46702;48.370;10.794;2024-02-14T08:53:50;6.50;99.90
60868;DHT22;46702;48.370;10.794;2024-02-14T08:56:20;6.60;99.90
60868;DHT22;46702;48.370;10.794;2024-02-14T08:58:47;6.80;99.90
60868;DHT22;46702;48.370;10.794;2024-02-14T09:01:13;6.90;99.90
60868;DHT22;46702;48.370;10.794;2024-02-14T09:03:40;6.90;99.90
60868;DHT22;46702;48.370;10.794;2024-02-14T09:06:08;7.00;99.90
60868;DHT22;46702;48.370;10.794;2024-02-14T09:08:35;7.10;99.90
60868;DHT22;46702;48.370;10.794;2024-02-14T09:11:00;7.10;99.90
60868;DHT22;46702;48.370;10.794;2024-02-14T09:13:26;7.20;99.90
60868;DHT22;46702;48.370;10.794;2024-02-14T09:15:53;7.20;99.90
60868;DHT22;46702;48.370;10.794;2024-02-14T09:18:19;7.20;99.90
60868;DHT22;46702;48.370;10.794;2024-02-14T09:20:45;7.30;99.90
60868;DHT22;46702;48.370;10.794;2024-02-14T09:23:12;7.50;99.90
60868;DHT22;46702;48.370;10.794;2024-02-14T09:25:40;7.60;99.90
60868;DHT22;46702;48.370;10.794;2024-02-14T09:28:06;7.70;99.90
60868;DHT22;46702;48.370;10.794;2024-02-14T09:30:32;7.80;99.90
60868;DHT22;46702;48.370;10.794;2024-02-14T09:32:58;7.80;99.90
60868;DHT22;46702;48.370;10.794;2024-02-14T09:35:24;8.00;99.90
60868;DHT22;46702;48.370;10.794;2024-02-14T09:37:51;8.00;99.90
60868;DHT22;46702;48.370;10.794;2024-02-14T09:40:17;8.00;99.90
60868;DHT22;46702;48.370;10.794;2024-02-14T09:42:55;8.10;99.90
60868;DHT22;46702;48.370;10.794;2024-02-14T09:45:26;8.40;99.90
60868;DHT22;46702;48.370;10.794;2024-02-14T09:47:57;8.60;99.90
60868;DHT22;46702;48.370;10.794;2024-02-14T09:50:23;8.60;99.90
60868;DHT22;46702;48.370;10.794;2024-02-14T09:52:50;8.60;99.90
60868;DHT22;46702;48.370;10.794;2024-02-14T09:55:17;8.60;99.90
60868;DHT22;46702;48.370;10.794;2024-02-14T09:57:44;8.80;99.90
60868;DHT22;46702;48.370;10.794;2024-02-14T10:00:11;8.90;99.90
60868;DHT22;46702;48.370;10.794;2024-02-14T10:02:38;8.90;99.90
60868;DHT22;46702;48.370;10.794;2024-02-14T10:05:04;9.00;99.90
60868;DHT22;46702;48.370;10.794;2024-02-14T10:07:29;9.00;99.90
60868;DHT22;46702;48.370;10.794;2024-02-14T10:10:06;9.00;99.90
60868;DHT22;46702;48.370;10.794;2024-02-14T10:12:32;8.90;99.90
60868;DHT22;46702;48.370;10.794;2024-02-14T10:14:58;8.90;99.90
60868;DHT22;46702;48.370;10.794;2024-02-14T10:17:23;9.00;99.90
60868;DHT22;46702;48.370;10.794;2024-02-14T10:20:00;9.30;99.90
60868;DHT22;46702;48.370;10.794;2024-02-14T10:22:38;9.30;99.90
60868;DHT22;46702;48.370;10.794;2024-02-14T10:25:05;9.40;99.90
60868;DHT22;46702;48.370;10.794;2024-02-14T10:27:40;9.40;99.90
60868;DHT22;46702;48.370;10.794;2024-02-14T10:30:09;9.30;99.90
60868;DHT22;46702;48.370;10.794;2024-02-14T10:32:41;9.50;99.90
60868;DHT22;46702;48.370;10.794;2024-02-14T10:35:13;9.50;99.90
60868;DHT22;46702;48.370;10.794;2024-02-14T10:37:40;9.60;99.90
60868;DHT22;46702;48.370;10.794;2024-02-14T10:40:06;9.60;99.90
60868;DHT22;46702;48.370;10.794;2024-02-14T10:42:35;9.60;99.90
60868;DHT22;46702;48.370;10.794;2024-02-14T10:45:02;9.50;99.90
60868;DHT22;46702;48.370;10.794;2024-02-14T10:47:35;9.60;99.90
60868;DHT22;46702;48.370;10.794;2024-02-14T10:50:05;9.60;99.90
60868;DHT22;46702;48.370;10.794;2024-02-14T10:52:34;9.60;99.90
60868;DHT22;46702;48.370;10.794;2024-02-14T10:55:03;9.60;99.90
60868;DHT22;46702;48.370;10.794;2024-02-14T10:57:30;9.70;99.90
60868;DHT22;46702;48.370;10.794;2024-02-14T11:00:01;9.70;99.90
60868;DHT22;46702;48.370;10.794;2024-02-14T11:02:28;9.90;99.90
60868;DHT22;46702;48.370;10.794;2024-02-14T11:04:56;9.90;99.90
60868;DHT22;46702;48.370;10.794;2024-02-14T11:07:22;10.00;99.90
60868;DHT22;46702;48.370;10.794;2024-02-14T11:09:59;10.00;99.90
60868;DHT22;46702;48.370;10.794;2024-02-14T11:12:26;10.20;99.90
60868;DHT22;46702;48.370;10.794;2024-02-14T11:14:57;10.20;99.90
60868;DHT22;46702;48.370;10.794;2024-02-14T11:17:24;10.30;99.90
60868;DHT22;46702;48.370;10.794;2024-02-14T11:19:52;10.50;99.90
60868;DHT22;46702;48.370;10.794;2024-02-14T11:22:19;10.70;99.90
60868;DHT22;46702;48.370;10.794;2024-02-14T11:24:48;10.80;97.40
60868;DHT22;46702;48.370;10.794;2024-02-14T11:27:17;10.90;98.00
60868;DHT22;46702;48.370;10.794;2024-02-14T11:29:52;10.90;97.80
60868;DHT22;46702;48.370;10.794;2024-02-14T11:32:18;11.10;95.70
60868;DHT22;46702;48.370;10.794;2024-02-14T11:34:53;11.00;95.60
60868;DHT22;46702;48.370;10.794;2024-02-14T11:37:20;11.30;98.00
60868;DHT22;46702;48.370;10.794;2024-02-14T11:39:46;11.40;96.70
60868;DHT22;46702;48.370;10.794;2024-02-14T11:42:12;11.30;96.00
60868;DHT22;46702;48.370;10.794;2024-02-14T11:44:40;11.40;99.80
60868;DHT22;46702;48.370;10.794;2024-02-14T11:47:09;11.40;98.50
60868;DHT22;46702;48.370;10.794;2024-02-14T11:49:36;11.40;99.90
60868;DHT22;46702;48.370;10.794;2024-02-14T11:52:02;11.50;99.90
60868;DHT22;46702;48.370;10.794;2024-02-14T11:54:29;11.40;97.10
60868;DHT22;46702;48.370;10.794;2024-02-14T11:56:56;11.40;98.60
60868;DHT22;46702;48.370;10.794;2024-02-14T11:59:22;11.30;99.90
60868;DHT22;46702;48.370;10.794;2024-02-14T12:01:49;11.40;99.90
60868;DHT22;46702;48.370;10.794;2024-02-14T12:04:17;11.50;99.90
60868;DHT22;46702;48.370;10.794;2024-02-14T12:06:44;11.60;99.90
60868;DHT22;46702;48.370;10.794;2024-02-14T12:09:11;11.60;99.90
60868;DHT22;46702;48.370;10.794;2024-02-14T12:11:40;11.80;99.90
60868;DHT22;46702;48.370;10.794;2024-02-14T12:14:10;11.90;99.90
60868;DHT22;46702;48.370;10.794;2024-02-14T12:16:37;12.00;99.90
60868;DHT22;46702;48.370;10.794;2024-02-14T12:19:09;12.00;99.90
60868;DHT22;46702;48.370;10.794;2024-02-14T12:21:41;11.90;99.90
60868;DHT22;46702;48.370;10.794;2024-02-14T12:24:11;12.00;99.90
60868;DHT22;46702;48.370;10.794;2024-02-14T12:26:41;12.10;99.90
60868;DHT22;46702;48.370;10.794;2024-02-14T12:29:10;12.20;99.90
60868;DHT22;46702;48.370;10.794;2024-02-14T12:31:36;12.10;99.90
60868;DHT22;46702;48.370;10.794;2024-02-14T12:34:03;12.10;99.90
60868;DHT22;46702;48.370;10.794;2024-02-14T12:36:31;12.30;99.90
60868;DHT22;46702;48.370;10.794;2024-02-14T12:38:59;12.20;99.90
60868;DHT22;46702;48.370;10.794;2024-02-14T12:41:28;12.30;99.90
60868;DHT22;46702;48.370;10.794;2024-02-14T12:43:58;12.50;99.90
60868;DHT22;46702;48.370;10.794;2024-02-14T12:46:24;12.60;99.90
60868;DHT22;46702;48.370;10.794;2024-02-14T12:48:50;12.40;99.90
60868;DHT22;46702;48.370;10.794;2024-02-14T12:51:16;12.20;99.90
60868;DHT22;46702;48.370;10.794;2024-02-14T12:53:42;12.10;99.90
60868;DHT22;46702;48.370;10.794;2024-02-14T12:56:08;12.10;99.90
60868;DHT22;46702;48.370;10.794;2024-02-14T12:58:34;12.00;99.90
60868;DHT22;46702;48.370;10.794;2024-02-14T13:01:00;12.00;99.90
60868;DHT22;46702;48.370;10.794;2024-02-14T13:03:27;12.10;99.90
60868;DHT22;46702;48.370;10.794;2024-02-14T13:05:54;12.20;99.90
60868;DHT22;46702;48.370;10.794;2024-02-14T13:08:20;12.20;99.90
60868;DHT22;46702;48.370;10.794;2024-02-14T13:10:46;12.30;99.90
60868;DHT22;46702;48.370;10.794;2024-02-14T13:13:13;12.40;99.90
60868;DHT22;46702;48.370;10.794;2024-02-14T13:15:40;12.30;99.90
60868;DHT22;46702;48.370;10.794;2024-02-14T13:18:06;12.30;99.90
60868;DHT22;46702;48.370;10.794;2024-02-14T13:20:32;12.30;99.90
60868;DHT22;46702;48.370;10.794;2024-02-14T13:22:57;12.30;99.90
60868;DHT22;46702;48.370;10.794;2024-02-14T13:25:24;12.30;99.90
60868;DHT22;46702;48.370;10.794;2024-02-14T13:27:49;12.50;99.90
60868;DHT22;46702;48.370;10.794;2024-02-14T13:30:16;12.60;99.90
60868;DHT22;46702;48.370;10.794;2024-02-14T13:32:44;12.70;99.90
60868;DHT22;46702;48.370;10.794;2024-02-14T13:35:09;12.50;99.90
60868;DHT22;46702;48.370;10.794;2024-02-14T13:37:37;12.50;99.90
60868;DHT22;46702;48.370;10.794;2024-02-14T13:40:03;12.60;99.90
60868;DHT22;46702;48.370;10.794;2024-02-14T13:42:34;12.70;99.90
60868;DHT22;46702;48.370;10.794;2024-02-14T13:45:00;12.70;99.90
60868;DHT22;46702;48.370;10.794;2024-02-14T13:47:25;12.80;99.90
60868;DHT22;46702;48.370;10.794;2024-02-14T13:49:51;12.90;99.90
60868;DHT22;46702;48.370;10.794;2024-02-14T13:52:17;12.80;99.90
60868;DHT22;46702;48.370;10.794;2024-02-14T13:54:44;13.00;99.90
60868;DHT22;46702;48.370;10.794;2024-02-14T13:57:09;13.00;99.90
60868;DHT22;46702;48.370;10.794;2024-02-14T13:59:37;13.00;99.90
60868;DHT22;46702;48.370;10.794;2024-02-14T14:02:03;13.00;99.90
60868;DHT22;46702;48.370;10.794;2024-02-14T14:04:28;12.80;99.90
60868;DHT22;46702;48.370;10.794;2024-02-14T14:06:54;12.70;99.90
60868;DHT22;46702;48.370;10.794;2024-02-14T14:09:20;12.60;99.90
60868;DHT22;46702;48.370;10.794;2024-02-14T14:11:46;12.50;99.90
60868;DHT22;46702;48.370;10.794;2024-02-14T14:14:15;12.50;99.90
60868;DHT22;46702;48.370;10.794;2024-02-14T14:16:44;12.50;99.90
60868;DHT22;46702;48.370;10.794;2024-02-14T14:19:10;12.40;99.90
60868;DHT22;46702;48.370;10.794;2024-02-14T14:21:36;12.30;99.90
60868;DHT22;46702;48.370;10.794;2024-02-14T14:24:04;12.30;99.90
60868;DHT22;46702;48.370;10.794;2024-02-14T14:26:30;12.30;99.90
60868;DHT22;46702;48.370;10.794;2024-02-14T14:28:55;12.40;99.90
60868;DHT22;46702;48.370;10.794;2024-02-14T14:31:21;12.30;99.90
60868;DHT22;46702;48.370;10.794;2024-02-14T14:33:47;12.40;99.90
60868;DHT22;46702;48.370;10.794;2024-02-14T14:36:14;12.30;99.90
60868;DHT22;46702;48.370;10.794;2024-02-14T14:38:40;12.30;99.90
60868;DHT22;46702;48.370;10.794;2024-02-14T14:41:06;12.30;99.90
60868;DHT22;46702;48.370;10.794;2024-02-14T14:43:32;12.30;99.90
60868;DHT22;46702;48.370;10.794;2024-02-14T14:45:57;12.40;99.90
60868;DHT22;46702;48.370;10.794;2024-02-14T14:48:25;12.30;99.90
60868;DHT22;46702;48.370;10.794;2024-02-14T14:50:51;12.40;99.90
60868;DHT22;46702;48.370;10.794;2024-02-14T14:53:18;12.30;99.90
60868;DHT22;46702;48.370;10.794;2024-02-14T14:55:57;12.30;99.90
60868;DHT22;46702;48.370;10.794;2024-02-14T14:58:24;12.30;99.90
60868;DHT22;46702;48.370;10.794;2024-02-14T15:00:56;12.30;99.90
60868;DHT22;46702;48.370;10.794;2024-02-14T15:03:24;12.30;99.90
60868;DHT22;46702;48.370;10.794;2024-02-14T15:05:50;12.20;99.90
60868;DHT22;46702;48.370;10.794;2024-02-14T15:08:18;12.20;99.90
60868;DHT22;46702;48.370;10.794;2024-02-14T15:10:49;12.20;99.90
60868;DHT22;46702;48.370;10.794;2024-02-14T15:13:20;12.20;99.90
60868;DHT22;46702;48.370;10.794;2024-02-14T15:15:47;12.10;99.90
60868;DHT22;46702;48.370;10.794;2024-02-14T15:18:12;12.10;99.90
60868;DHT22;46702;48.370;10.794;2024-02-14T15:20:39;12.00;99.90
60868;DHT22;46702;48.370;10.794;2024-02-14T15:23:05;12.00;99.90